sensor_id;sensor_type;location;lat;lon;timestamp;temperature;humidity
19552;DHT22;9921;47.186;9.778;2022-10-18T00:01:07;12.80;99.90
19552;DHT22;9921;47.186;9.778;2022-10-18T00:03:35;12.90;99.90
19552;DHT22;9921;47.186;9.778;2022-10-18T00:06:03;12.60;99.90
19552;DHT22;9921;47.186;9.778;2022-10-18T00:08:30;12.40;99.90
19552;DHT22;9921;47.186;9.778;2022-10-18T00:10:57;12.40;99.90
19552;DHT22;9921;47.186;9.778;2022-10-18T00:13:24;12.60;99.90
19552;DHT22;9921;47.186;9.778;2022-10-18T00:15:52;12.60;99.90
19552;DHT22;9921;47.186;9.778;2022-10-18T00:18:21;12.70;99.90
19552;DHT22;9921;47.186;9.778;2022-10-18T00:20:56;12.70;99.90
19552;DHT22;9921;47.186;9.778;2022-10-18T00:23:23;12.70;99.90
19552;DHT22;9921;47.186;9.778;2022-10-18T00:25:58;12.30;99.90
19552;DHT22;9921;47.186;9.778;2022-10-18T00:28:25;12.30;99.90
19552;DHT22;9921;47.186;9.778;2022-10-18T00:30:52;12.30;99.90
19552;DHT22;9921;47.186;9.778;2022-10-18T00:33:20;12.40;99.90
19552;DHT22;9921;47.186;9.778;2022-10-18T00:35:46;12.40;99.90
19552;DHT22;9921;47.186;9.778;2022-10-18T00:38:13;12.60;99.90
19552;DHT22;9921;47.186;9.778;2022-10-18T00:40:40;12.40;99.90
19552;DHT22;9921;47.186;9.778;2022-10-18T00:43:10;12.40;99.90
19552;DHT22;9921;47.186;9.778;2022-10-18T00:45:40;12.50;99.90
19552;DHT22;9921;47.186;9.778;2022-10-18T00:48:07;12.50;99.90
19552;DHT22;9921;47.186;9.778;2022-10-18T00:50:35;12.50;99.90
19552;DHT22;9921;47.186;9.778;2022-10-18T00:53:05;12.30;99.90
19552;DHT22;9921;47.186;9.778;2022-10-18T00:55:34;12.10;99.90
19552;DHT22;9921;47.186;9.778;2022-10-18T00:58:01;11.80;99.90
19552;DHT22;9921;47.186;9.778;2022-10-18T01:00:29;11.80;99.90
19552;DHT22;9921;47.186;9.778;2022-10-18T01:02:57;11.90;99.90
19552;DHT22;9921;47.186;9.778;2022-10-18T01:05:25;12.00;99.90
19552;DHT22;9921;47.186;9.778;2022-10-18T01:08:09;12.00;99.90
19552;DHT22;9921;47.186;9.778;2022-10-18T01:10:48;12.10;99.90
19552;DHT22;9921;47.186;9.778;2022-10-18T01:13:27;12.00;99.90
19552;DHT22;9921;47.186;9.778;2022-10-18T01:16:00;11.90;99.90
19552;DHT22;9921;47.186;9.778;2022-10-18T01:18:40;11.90;99.90
19552;DHT22;9921;47.186;9.778;2022-10-18T01:21:18;11.90;99.90
19552;DHT22;9921;47.186;9.778;2022-10-18T01:27:34;11.90;99.90
19552;DHT22;9921;47.186;9.778;2022-10-18T01:30:31;11.80;99.90
19552;DHT22;9921;47.186;9.778;2022-10-18T01:33:04;11.60;99.90
19552;DHT22;9921;47.186;9.778;2022-10-18T01:35:36;11.60;99.90
19552;DHT22;9921;47.186;9.778;2022-10-18T01:38:09;11.60;99.90
19552;DHT22;9921;47.186;9.778;2022-10-18T01:40:38;11.70;99.90
19552;DHT22;9921;47.186;9.778;2022-10-18T01:43:07;11.80;99.90
19552;DHT22;9921;47.186;9.778;2022-10-18T01:45:37;11.90;99.90
19552;DHT22;9921;47.186;9.778;2022-10-18T01:48:04;12.00;99.90
19552;DHT22;9921;47.186;9.778;2022-10-18T01:50:33;12.00;99.90
19552;DHT22;9921;47.186;9.778;2022-10-18T01:53:01;11.90;99.90
19552;DHT22;9921;47.186;9.778;2022-10-18T01:55:32;11.90;99.90
19552;DHT22;9921;47.186;9.778;2022-10-18T01:58:07;11.70;99.90
19552;DHT22;9921;47.186;9.778;2022-10-18T02:00:39;11.50;99.90
19552;DHT22;9921;47.186;9.778;2022-10-18T02:03:13;11.60;99.90
19552;DHT22;9921;47.186;9.778;2022-10-18T02:05:45;11.70;99.90
19552;DHT22;9921;47.186;9.778;2022-10-18T02:08:23;11.80;99.90
19552;DHT22;9921;47.186;9.778;2022-10-18T02:10:54;11.90;99.90
19552;DHT22;9921;47.186;9.778;2022-10-18T02:13:24;11.90;99.90
19552;DHT22;9921;47.186;9.778;2022-10-18T02:15:56;11.70;99.90
19552;DHT22;9921;47.186;9.778;2022-10-18T02:18:26;11.50;99.90
19552;DHT22;9921;47.186;9.778;2022-10-18T02:20:55;11.50;99.90
19552;DHT22;9921;47.186;9.778;2022-10-18T02:23:24;11.40;99.90
19552;DHT22;9921;47.186;9.778;2022-10-18T02:25:52;11.50;99.90
19552;DHT22;9921;47.186;9.778;2022-10-18T02:28:19;11.60;99.90
19552;DHT22;9921;47.186;9.778;2022-10-18T02:30:55;11.60;99.90
19552;DHT22;9921;47.186;9.778;2022-10-18T02:33:29;11.80;99.90
19552;DHT22;9921;47.186;9.778;2022-10-18T02:36:01;12.00;99.90
19552;DHT22;9921;47.186;9.778;2022-10-18T02:38:30;12.00;99.90
19552;DHT22;9921;47.186;9.778;2022-10-18T02:40:57;12.00;99.90
19552;DHT22;9921;47.186;9.778;2022-10-18T02:43:24;12.00;99.90
19552;DHT22;9921;47.186;9.778;2022-10-18T02:45:53;12.20;99.90
19552;DHT22;9921;47.186;9.778;2022-10-18T02:48:20;12.10;99.90
19552;DHT22;9921;47.186;9.778;2022-10-18T02:50:47;12.10;99.90
19552;DHT22;9921;47.186;9.778;2022-10-18T02:53:13;12.00;99.90
19552;DHT22;9921;47.186;9.778;2022-10-18T02:55:40;12.20;99.90
19552;DHT22;9921;47.186;9.778;2022-10-18T02:58:07;12.20;99.90
19552;DHT22;9921;47.186;9.778;2022-10-18T03:00:34;12.10;99.90
19552;DHT22;9921;47.186;9.778;2022-10-18T03:03:02;12.00;99.90
19552;DHT22;9921;47.186;9.778;2022-10-18T03:05:29;12.10;99.90
19552;DHT22;9921;47.186;9.778;2022-10-18T03:07:56;12.30;99.90
19552;DHT22;9921;47.186;9.778;2022-10-18T03:10:23;12.20;99.90
19552;DHT22;9921;47.186;9.778;2022-10-18T03:12:50;12.30;99.90
19552;DHT22;9921;47.186;9.778;2022-10-18T03:15:16;12.30;99.90
19552;DHT22;9921;47.186;9.778;2022-10-18T03:17:43;12.30;99.90
19552;DHT22;9921;47.186;9.778;2022-10-18T03:20:12;12.40;99.90
19552;DHT22;9921;47.186;9.778;2022-10-18T03:22:38;12.40;99.90
19552;DHT22;9921;47.186;9.778;2022-10-18T03:25:06;12.40;99.90
19552;DHT22;9921;47.186;9.778;2022-10-18T03:27:33;12.30;99.90
19552;DHT22;9921;47.186;9.778;2022-10-18T03:29:59;12.40;99.90
19552;DHT22;9921;47.186;9.778;2022-10-18T03:32:26;12.60;99.90
19552;DHT22;9921;47.186;9.778;2022-10-18T03:34:53;12.60;99.90
19552;DHT22;9921;47.186;9.778;2022-10-18T03:37:21;12.60;99.90
19552;DHT22;9921;47.186;9.778;2022-10-18T03:39:48;12.60;99.90
19552;DHT22;9921;47.186;9.778;2022-10-18T03:42:15;12.60;99.90
19552;DHT22;9921;47.186;9.778;2022-10-18T03:44:42;12.70;99.90
19552;DHT22;9921;47.186;9.778;2022-10-18T03:47:09;12.60;99.90
19552;DHT22;9921;47.186;9.778;2022-10-18T03:49:36;12.70;99.90
19552;DHT22;9921;47.186;9.778;2022-10-18T03:52:03;12.60;99.90
19552;DHT22;9921;47.186;9.778;2022-10-18T03:54:31;12.60;99.90
19552;DHT22;9921;47.186;9.778;2022-10-18T03:56:58;12.60;99.90
19552;DHT22;9921;47.186;9.778;2022-10-18T03:59:24;12.60;99.90
19552;DHT22;9921;47.186;9.778;2022-10-18T04:01:51;12.60;99.90
19552;DHT22;9921;47.186;9.778;2022-10-18T04:04:18;12.50;99.90
19552;DHT22;9921;47.186;9.778;2022-10-18T04:06:45;12.50;99.90
19552;DHT22;9921;47.186;9.778;2022-10-18T04:09:12;12.60;99.90
19552;DHT22;9921;47.186;9.778;2022-10-18T04:11:40;12.60;99.90
19552;DHT22;9921;47.186;9.778;2022-10-18T04:14:07;12.60;99.90
19552;DHT22;9921;47.186;9.778;2022-10-18T04:16:34;12.60;99.90
19552;DHT22;9921;47.186;9.778;2022-10-18T04:19:01;12.60;99.90
19552;DHT22;9921;47.186;9.778;2022-10-18T04:21:28;12.80;99.90
19552;DHT22;9921;47.186;9.778;2022-10-18T04:23:54;12.80;99.90
19552;DHT22;9921;47.186;9.778;2022-10-18T04:26:21;12.80;99.90
19552;DHT22;9921;47.186;9.778;2022-10-18T04:28:49;12.90;99.90
19552;DHT22;9921;47.186;9.778;2022-10-18T04:31:16;12.90;99.90
19552;DHT22;9921;47.186;9.778;2022-10-18T04:33:43;12.90;99.90
19552;DHT22;9921;47.186;9.778;2022-10-18T04:36:10;12.80;99.90
19552;DHT22;9921;47.186;9.778;2022-10-18T04:38:37;12.80;99.90
19552;DHT22;9921;47.186;9.778;2022-10-18T04:41:04;12.90;99.90
19552;DHT22;9921;47.186;9.778;2022-10-18T04:43:31;13.00;99.90
19552;DHT22;9921;47.186;9.778;2022-10-18T04:45:59;13.00;99.90
19552;DHT22;9921;47.186;9.778;2022-10-18T04:48:26;13.00;99.90
19552;DHT22;9921;47.186;9.778;2022-10-18T04:50:53;13.00;99.90
19552;DHT22;9921;47.186;9.778;2022-10-18T04:53:20;12.90;99.90
19552;DHT22;9921;47.186;9.778;2022-10-18T04:55:48;12.80;99.90
19552;DHT22;9921;47.186;9.778;2022-10-18T04:58:15;12.90;99.90
19552;DHT22;9921;47.186;9.778;2022-10-18T05:00:43;13.00;99.90
19552;DHT22;9921;47.186;9.778;2022-10-18T05:03:12;12.90;99.90
19552;DHT22;9921;47.186;9.778;2022-10-18T05:05:39;12.90;99.90
19552;DHT22;9921;47.186;9.778;2022-10-18T05:08:06;13.00;99.90
19552;DHT22;9921;47.186;9.778;2022-10-18T05:10:33;13.00;99.90
19552;DHT22;9921;47.186;9.778;2022-10-18T05:13:00;13.00;99.90
19552;DHT22;9921;47.186;9.778;2022-10-18T05:15:27;13.00;99.90
19552;DHT22;9921;47.186;9.778;2022-10-18T05:17:54;13.10;99.90
19552;DHT22;9921;47.186;9.778;2022-10-18T05:20:22;13.10;99.90
19552;DHT22;9921;47.186;9.778;2022-10-18T05:22:49;13.20;99.90
19552;DHT22;9921;47.186;9.778;2022-10-18T05:25:15;13.20;99.90
19552;DHT22;9921;47.186;9.778;2022-10-18T05:27:42;13.10;99.90
19552;DHT22;9921;47.186;9.778;2022-10-18T05:30:09;13.20;99.90
19552;DHT22;9921;47.186;9.778;2022-10-18T05:32:36;13.20;99.90
19552;DHT22;9921;47.186;9.778;2022-10-18T05:35:04;13.20;99.90
19552;DHT22;9921;47.186;9.778;2022-10-18T05:37:32;13.20;99.90
19552;DHT22;9921;47.186;9.778;2022-10-18T05:39:59;13.30;99.90
19552;DHT22;9921;47.186;9.778;2022-10-18T05:42:25;13.30;99.90
19552;DHT22;9921;47.186;9.778;2022-10-18T05:44:52;13.30;99.90
19552;DHT22;9921;47.186;9.778;2022-10-18T05:47:19;13.40;99.90
19552;DHT22;9921;47.186;9.778;2022-10-18T05:49:46;13.50;99.90
19552;DHT22;9921;47.186;9.778;2022-10-18T05:52:13;13.50;99.90
19552;DHT22;9921;47.186;9.778;2022-10-18T05:54:42;13.40;99.90
19552;DHT22;9921;47.186;9.778;2022-10-18T05:57:09;13.40;99.90
19552;DHT22;9921;47.186;9.778;2022-10-18T05:59:36;13.50;99.90
19552;DHT22;9921;47.186;9.778;2022-10-18T06:02:03;13.50;99.90
19552;DHT22;9921;47.186;9.778;2022-10-18T06:04:30;13.50;99.90
19552;DHT22;9921;47.186;9.778;2022-10-18T06:06:56;13.50;99.90
19552;DHT22;9921;47.186;9.778;2022-10-18T06:09:23;13.60;99.90
19552;DHT22;9921;47.186;9.778;2022-10-18T06:11:51;13.60;99.90
19552;DHT22;9921;47.186;9.778;2022-10-18T06:14:18;13.60;99.90
19552;DHT22;9921;47.186;9.778;2022-10-18T06:16:45;13.60;99.90
19552;DHT22;9921;47.186;9.778;2022-10-18T06:19:12;13.50;99.90
19552;DHT22;9921;47.186;9.778;2022-10-18T06:21:39;13.40;99.90
19552;DHT22;9921;47.186;9.778;2022-10-18T06:24:05;13.40;99.90
19552;DHT22;9921;47.186;9.778;2022-10-18T06:26:32;13.40;99.90
19552;DHT22;9921;47.186;9.778;2022-10-18T06:29:00;13.50;99.90
19552;DHT22;9921;47.186;9.778;2022-10-18T06:31:27;13.50;99.90
19552;DHT22;9921;47.186;9.778;2022-10-18T06:33:55;13.60;99.90
19552;DHT22;9921;47.186;9.778;2022-10-18T06:36:23;13.60;99.90
19552;DHT22;9921;47.186;9.778;2022-10-18T06:38:50;13.60;99.90
19552;DHT22;9921;47.186;9.778;2022-10-18T06:41:17;13.70;99.90
19552;DHT22;9921;47.186;9.778;2022-10-18T06:43:47;13.70;99.90
19552;DHT22;9921;47.186;9.778;2022-10-18T06:46:16;13.80;99.90
19552;DHT22;9921;47.186;9.778;2022-10-18T06:48:43;13.80;99.90
19552;DHT22;9921;47.186;9.778;2022-10-18T06:51:10;13.80;99.90
19552;DHT22;9921;47.186;9.778;2022-10-18T06:53:39;13.90;99.90
19552;DHT22;9921;47.186;9.778;2022-10-18T06:56:07;14.00;99.90
19552;DHT22;9921;47.186;9.778;2022-10-18T06:58:35;14.00;99.90
19552;DHT22;9921;47.186;9.778;2022-10-18T07:01:05;14.00;99.90
19552;DHT22;9921;47.186;9.778;2022-10-18T07:03:34;14.00;99.90
19552;DHT22;9921;47.186;9.778;2022-10-18T07:06:01;14.30;99.90
19552;DHT22;9921;47.186;9.778;2022-10-18T07:08:29;14.30;99.90
19552;DHT22;9921;47.186;9.778;2022-10-18T07:10:56;14.20;99.90
19552;DHT22;9921;47.186;9.778;2022-10-18T07:13:23;14.30;99.90
19552;DHT22;9921;47.186;9.778;2022-10-18T07:15:59;14.40;99.90
19552;DHT22;9921;47.186;9.778;2022-10-18T07:18:26;14.60;99.90
19552;DHT22;9921;47.186;9.778;2022-10-18T07:20:55;14.70;99.90
19552;DHT22;9921;47.186;9.778;2022-10-18T07:23:21;14.80;99.90
19552;DHT22;9921;47.186;9.778;2022-10-18T07:25:49;14.80;99.90
19552;DHT22;9921;47.186;9.778;2022-10-18T07:28:16;14.90;99.90
19552;DHT22;9921;47.186;9.778;2022-10-18T07:30:42;14.80;99.90
19552;DHT22;9921;47.186;9.778;2022-10-18T07:33:09;14.80;99.90
19552;DHT22;9921;47.186;9.778;2022-10-18T07:35:36;14.90;99.90
19552;DHT22;9921;47.186;9.778;2022-10-18T07:38:04;14.90;99.90
19552;DHT22;9921;47.186;9.778;2022-10-18T07:40:31;14.90;99.90
19552;DHT22;9921;47.186;9.778;2022-10-18T07:42:58;14.90;99.90
19552;DHT22;9921;47.186;9.778;2022-10-18T07:45:25;14.90;99.90
19552;DHT22;9921;47.186;9.778;2022-10-18T07:47:53;15.00;99.90
19552;DHT22;9921;47.186;9.778;2022-10-18T07:50:20;15.10;99.90
19552;DHT22;9921;47.186;9.778;2022-10-18T07:52:47;15.20;99.90
19552;DHT22;9921;47.186;9.778;2022-10-18T07:55:15;15.30;99.90
19552;DHT22;9921;47.186;9.778;2022-10-18T07:57:42;15.40;99.90
19552;DHT22;9921;47.186;9.778;2022-10-18T08:00:10;15.60;99.90
19552;DHT22;9921;47.186;9.778;2022-10-18T08:02:37;15.90;99.90
19552;DHT22;9921;47.186;9.778;2022-10-18T08:05:04;16.20;99.90
19552;DHT22;9921;47.186;9.778;2022-10-18T08:07:31;16.50;99.90
19552;DHT22;9921;47.186;9.778;2022-10-18T08:09:58;16.70;99.90
19552;DHT22;9921;47.186;9.778;2022-10-18T08:12:27;16.90;99.90
19552;DHT22;9921;47.186;9.778;2022-10-18T08:14:53;17.10;99.90
19552;DHT22;9921;47.186;9.778;2022-10-18T08:17:22;17.30;99.90
19552;DHT22;9921;47.186;9.778;2022-10-18T08:19:49;17.40;99.90
19552;DHT22;9921;47.186;9.778;2022-10-18T08:22:15;17.60;99.90
19552;DHT22;9921;47.186;9.778;2022-10-18T08:24:42;17.80;99.90
19552;DHT22;9921;47.186;9.778;2022-10-18T08:27:09;17.90;99.90
19552;DHT22;9921;47.186;9.778;2022-10-18T08:29:37;18.00;99.90
19552;DHT22;9921;47.186;9.778;2022-10-18T08:32:04;18.00;99.90
19552;DHT22;9921;47.186;9.778;2022-10-18T08:34:32;18.00;99.90
19552;DHT22;9921;47.186;9.778;2022-10-18T08:36:59;17.70;99.90
19552;DHT22;9921;47.186;9.778;2022-10-18T08:39:26;17.70;99.90
19552;DHT22;9921;47.186;9.778;2022-10-18T08:42:15;17.70;99.90
19552;DHT22;9921;47.186;9.778;2022-10-18T08:44:48;17.60;99.90
19552;DHT22;9921;47.186;9.778;2022-10-18T08:47:17;17.70;99.90
19552;DHT22;9921;47.186;9.778;2022-10-18T08:49:47;17.70;99.90
19552;DHT22;9921;47.186;9.778;2022-10-18T08:52:22;17.70;99.90
19552;DHT22;9921;47.186;9.778;2022-10-18T08:54:57;17.70;99.90
19552;DHT22;9921;47.186;9.778;2022-10-18T08:57:27;17.70;99.90
19552;DHT22;9921;47.186;9.778;2022-10-18T08:59:55;17.70;99.90
19552;DHT22;9921;47.186;9.778;2022-10-18T09:02:31;17.70;99.90
19552;DHT22;9921;47.186;9.778;2022-10-18T09:05:04;17.70;99.90
19552;DHT22;9921;47.186;9.778;2022-10-18T09:07:49;17.60;99.90
19552;DHT22;9921;47.186;9.778;2022-10-18T09:10:22;17.60;99.90
19552;DHT22;9921;47.186;9.778;2022-10-18T09:13:09;17.60;99.90
19552;DHT22;9921;47.186;9.778;2022-10-18T09:15:46;17.80;99.90
19552;DHT22;9921;47.186;9.778;2022-10-18T09:18:36;18.10;99.90
19552;DHT22;9921;47.186;9.778;2022-10-18T09:21:16;18.50;99.90
19552;DHT22;9921;47.186;9.778;2022-10-18T09:23:47;19.00;99.90
19552;DHT22;9921;47.186;9.778;2022-10-18T09:26:16;19.50;99.90
19552;DHT22;9921;47.186;9.778;2022-10-18T09:28:53;20.10;99.90
19552;DHT22;9921;47.186;9.778;2022-10-18T09:31:27;21.20;99.90
19552;DHT22;9921;47.186;9.778;2022-10-18T09:33:59;22.60;99.90
19552;DHT22;9921;47.186;9.778;2022-10-18T09:36:31;24.10;99.90
19552;DHT22;9921;47.186;9.778;2022-10-18T09:39:02;25.80;99.90
19552;DHT22;9921;47.186;9.778;2022-10-18T09:41:34;27.50;99.90
19552;DHT22;9921;47.186;9.778;2022-10-18T09:44:09;28.70;99.90
19552;DHT22;9921;47.186;9.778;2022-10-18T09:46:43;29.50;98.80
19552;DHT22;9921;47.186;9.778;2022-10-18T09:49:16;30.10;95.00
19552;DHT22;9921;47.186;9.778;2022-10-18T09:51:44;30.10;92.30
19552;DHT22;9921;47.186;9.778;2022-10-18T09:54:23;29.80;92.60
19552;DHT22;9921;47.186;9.778;2022-10-18T09:56:55;29.40;92.90
19552;DHT22;9921;47.186;9.778;2022-10-18T09:59:36;29.50;92.10
19552;DHT22;9921;47.186;9.778;2022-10-18T10:02:06;30.40;91.20
19552;DHT22;9921;47.186;9.778;2022-10-18T10:04:35;31.60;90.50
19552;DHT22;9921;47.186;9.778;2022-10-18T10:07:07;32.50;85.30
19552;DHT22;9921;47.186;9.778;2022-10-18T10:09:39;32.80;81.30
19552;DHT22;9921;47.186;9.778;2022-10-18T10:12:26;33.10;80.30
19552;DHT22;9921;47.186;9.778;2022-10-18T10:14:53;33.20;75.30
19552;DHT22;9921;47.186;9.778;2022-10-18T10:17:23;33.70;69.50
19552;DHT22;9921;47.186;9.778;2022-10-18T10:19:58;34.50;65.50
19552;DHT22;9921;47.186;9.778;2022-10-18T10:22:34;35.00;63.50
19552;DHT22;9921;47.186;9.778;2022-10-18T10:25:02;35.50;67.50
19552;DHT22;9921;47.186;9.778;2022-10-18T10:27:32;35.10;66.20
19552;DHT22;9921;47.186;9.778;2022-10-18T10:30:01;34.90;67.10
19552;DHT22;9921;47.186;9.778;2022-10-18T10:32:43;34.80;63.70
19552;DHT22;9921;47.186;9.778;2022-10-18T10:35:22;34.90;63.20
19552;DHT22;9921;47.186;9.778;2022-10-18T10:37:51;35.50;61.80
19552;DHT22;9921;47.186;9.778;2022-10-18T10:40:20;36.10;57.70
19552;DHT22;9921;47.186;9.778;2022-10-18T10:45:35;34.90;60.10
19552;DHT22;9921;47.186;9.778;2022-10-18T10:48:07;34.30;61.70
19552;DHT22;9921;47.186;9.778;2022-10-18T10:50:54;34.30;60.60
19552;DHT22;9921;47.186;9.778;2022-10-18T10:53:40;34.10;61.00
19552;DHT22;9921;47.186;9.778;2022-10-18T10:56:29;34.50;61.00
19552;DHT22;9921;47.186;9.778;2022-10-18T10:59:00;34.80;61.50
19552;DHT22;9921;47.186;9.778;2022-10-18T11:01:31;35.60;59.80
19552;DHT22;9921;47.186;9.778;2022-10-18T11:04:02;34.90;59.10
19552;DHT22;9921;47.186;9.778;2022-10-18T11:06:57;35.20;58.20
19552;DHT22;9921;47.186;9.778;2022-10-18T11:12:17;35.40;57.00
19552;DHT22;9921;47.186;9.778;2022-10-18T11:14:51;34.50;58.40
19552;DHT22;9921;47.186;9.778;2022-10-18T11:17:24;34.00;59.40
19552;DHT22;9921;47.186;9.778;2022-10-18T11:20:11;33.70;59.00
19552;DHT22;9921;47.186;9.778;2022-10-18T11:22:42;34.10;58.20
19552;DHT22;9921;47.186;9.778;2022-10-18T11:25:12;34.80;57.00
19552;DHT22;9921;47.186;9.778;2022-10-18T11:27:43;35.60;58.10
19552;DHT22;9921;47.186;9.778;2022-10-18T11:33:10;37.00;52.50
19552;DHT22;9921;47.186;9.778;2022-10-18T11:35:46;37.50;54.10
19552;DHT22;9921;47.186;9.778;2022-10-18T11:38:30;37.70;53.10
19552;DHT22;9921;47.186;9.778;2022-10-18T11:43:57;38.30;50.90
19552;DHT22;9921;47.186;9.778;2022-10-18T11:46:44;38.40;51.20
19552;DHT22;9921;47.186;9.778;2022-10-18T11:49:31;38.60;51.40
19552;DHT22;9921;47.186;9.778;2022-10-18T11:52:08;39.10;51.20
19552;DHT22;9921;47.186;9.778;2022-10-18T11:54:57;39.30;48.40
19552;DHT22;9921;47.186;9.778;2022-10-18T11:57:42;39.20;48.70
19552;DHT22;9921;47.186;9.778;2022-10-18T12:00:23;38.90;49.00
19552;DHT22;9921;47.186;9.778;2022-10-18T12:03:06;39.10;50.80
19552;DHT22;9921;47.186;9.778;2022-10-18T12:05:38;39.30;50.00
19552;DHT22;9921;47.186;9.778;2022-10-18T12:08:12;39.10;50.20
19552;DHT22;9921;47.186;9.778;2022-10-18T12:10:41;38.50;49.40
19552;DHT22;9921;47.186;9.778;2022-10-18T12:13:15;38.00;50.70
19552;DHT22;9921;47.186;9.778;2022-10-18T12:15:42;38.10;49.60
19552;DHT22;9921;47.186;9.778;2022-10-18T12:18:13;38.30;51.30
19552;DHT22;9921;47.186;9.778;2022-10-18T12:20:44;38.20;50.50
19552;DHT22;9921;47.186;9.778;2022-10-18T12:23:16;38.40;50.00
19552;DHT22;9921;47.186;9.778;2022-10-18T12:25:49;38.70;49.10
19552;DHT22;9921;47.186;9.778;2022-10-18T12:28:25;38.50;48.70
19552;DHT22;9921;47.186;9.778;2022-10-18T12:31:00;38.50;50.70
19552;DHT22;9921;47.186;9.778;2022-10-18T12:33:34;38.40;50.20
19552;DHT22;9921;47.186;9.778;2022-10-18T12:36:10;38.70;49.50
19552;DHT22;9921;47.186;9.778;2022-10-18T12:38:44;38.80;48.00
19552;DHT22;9921;47.186;9.778;2022-10-18T12:41:18;38.60;49.20
19552;DHT22;9921;47.186;9.778;2022-10-18T12:43:51;38.80;48.40
19552;DHT22;9921;47.186;9.778;2022-10-18T12:46:18;37.60;50.90
19552;DHT22;9921;47.186;9.778;2022-10-18T12:48:49;37.00;51.90
19552;DHT22;9921;47.186;9.778;2022-10-18T12:51:26;36.40;52.90
19552;DHT22;9921;47.186;9.778;2022-10-18T12:54:08;35.60;53.80
19552;DHT22;9921;47.186;9.778;2022-10-18T12:56:38;35.70;53.50
19552;DHT22;9921;47.186;9.778;2022-10-18T13:04:59;35.40;54.90
19552;DHT22;9921;47.186;9.778;2022-10-18T13:07:36;35.20;55.70
19552;DHT22;9921;47.186;9.778;2022-10-18T13:10:40;35.40;54.90
19552;DHT22;9921;47.186;9.778;2022-10-18T13:16:20;35.80;53.80
19552;DHT22;9921;47.186;9.778;2022-10-18T13:18:53;36.10;54.40
19552;DHT22;9921;47.186;9.778;2022-10-18T13:21:29;35.90;55.10
19552;DHT22;9921;47.186;9.778;2022-10-18T13:27:09;35.90;54.40
19552;DHT22;9921;47.186;9.778;2022-10-18T13:29:51;35.70;55.80
19552;DHT22;9921;47.186;9.778;2022-10-18T13:32:24;35.30;55.90
19552;DHT22;9921;47.186;9.778;2022-10-18T13:34:53;34.00;57.60
19552;DHT22;9921;47.186;9.778;2022-10-18T13:37:22;33.10;58.30
19552;DHT22;9921;47.186;9.778;2022-10-18T13:39:51;32.00;60.70
19552;DHT22;9921;47.186;9.778;2022-10-18T13:42:39;31.00;62.50
19552;DHT22;9921;47.186;9.778;2022-10-18T13:48:43;29.40;67.20
19552;DHT22;9921;47.186;9.778;2022-10-18T13:51:34;29.30;68.40
19552;DHT22;9921;47.186;9.778;2022-10-18T13:57:04;28.60;69.40
19552;DHT22;9921;47.186;9.778;2022-10-18T14:00:01;28.00;72.60
19552;DHT22;9921;47.186;9.778;2022-10-18T14:03:03;27.60;72.30
19552;DHT22;9921;47.186;9.778;2022-10-18T14:05:48;27.20;73.70
19552;DHT22;9921;47.186;9.778;2022-10-18T14:08:18;26.70;75.80
19552;DHT22;9921;47.186;9.778;2022-10-18T14:10:53;26.50;77.80
19552;DHT22;9921;47.186;9.778;2022-10-18T14:13:23;26.20;78.50
19552;DHT22;9921;47.186;9.778;2022-10-18T14:15:56;25.90;80.70
19552;DHT22;9921;47.186;9.778;2022-10-18T14:18:27;25.60;82.80
19552;DHT22;9921;47.186;9.778;2022-10-18T14:20:59;25.30;84.70
19552;DHT22;9921;47.186;9.778;2022-10-18T14:23:32;25.20;85.10
19552;DHT22;9921;47.186;9.778;2022-10-18T14:26:05;25.40;86.00
19552;DHT22;9921;47.186;9.778;2022-10-18T14:28:33;25.50;86.30
19552;DHT22;9921;47.186;9.778;2022-10-18T14:31:03;25.60;85.80
19552;DHT22;9921;47.186;9.778;2022-10-18T14:33:33;25.40;87.20
19552;DHT22;9921;47.186;9.778;2022-10-18T14:36:05;25.50;87.50
19552;DHT22;9921;47.186;9.778;2022-10-18T14:38:34;26.00;88.20
19552;DHT22;9921;47.186;9.778;2022-10-18T14:41:12;26.20;85.90
19552;DHT22;9921;47.186;9.778;2022-10-18T14:43:40;26.60;85.20
19552;DHT22;9921;47.186;9.778;2022-10-18T14:46:17;27.20;83.50
19552;DHT22;9921;47.186;9.778;2022-10-18T14:48:54;27.70;82.80
19552;DHT22;9921;47.186;9.778;2022-10-18T14:51:22;28.30;81.50
19552;DHT22;9921;47.186;9.778;2022-10-18T14:53:49;28.60;80.20
19552;DHT22;9921;47.186;9.778;2022-10-18T14:56:21;28.50;79.10
19552;DHT22;9921;47.186;9.778;2022-10-18T14:58:49;28.30;80.10
19552;DHT22;9921;47.186;9.778;2022-10-18T15:01:20;28.00;80.60
19552;DHT22;9921;47.186;9.778;2022-10-18T15:03:48;27.60;82.50
19552;DHT22;9921;47.186;9.778;2022-10-18T15:06:17;27.10;83.40
19552;DHT22;9921;47.186;9.778;2022-10-18T15:11:15;26.30;85.50
19552;DHT22;9921;47.186;9.778;2022-10-18T15:13:47;26.10;88.20
19552;DHT22;9921;47.186;9.778;2022-10-18T15:16:16;26.00;89.10
19552;DHT22;9921;47.186;9.778;2022-10-18T15:18:58;26.00;89.30
19552;DHT22;9921;47.186;9.778;2022-10-18T15:21:25;25.90;89.00
19552;DHT22;9921;47.186;9.778;2022-10-18T15:23:52;25.80;89.00
19552;DHT22;9921;47.186;9.778;2022-10-18T15:26:23;25.60;90.00
19552;DHT22;9921;47.186;9.778;2022-10-18T15:28:51;25.60;90.70
19552;DHT22;9921;47.186;9.778;2022-10-18T15:31:26;25.30;91.20
19552;DHT22;9921;47.186;9.778;2022-10-18T15:34:07;25.10;91.00
19552;DHT22;9921;47.186;9.778;2022-10-18T15:36:35;24.90;91.50
19552;DHT22;9921;47.186;9.778;2022-10-18T15:39:06;24.70;91.90
19552;DHT22;9921;47.186;9.778;2022-10-18T15:41:44;24.60;92.50
19552;DHT22;9921;47.186;9.778;2022-10-18T15:44:23;24.40;92.70
19552;DHT22;9921;47.186;9.778;2022-10-18T15:46:52;24.20;93.50
19552;DHT22;9921;47.186;9.778;2022-10-18T15:49:48;24.00;93.50
19552;DHT22;9921;47.186;9.778;2022-10-18T15:52:37;23.80;93.90
19552;DHT22;9921;47.186;9.778;2022-10-18T15:58:19;23.50;95.40
19552;DHT22;9921;47.186;9.778;2022-10-18T16:00:48;23.40;95.50
19552;DHT22;9921;47.186;9.778;2022-10-18T16:03:16;23.20;96.40
19552;DHT22;9921;47.186;9.778;2022-10-18T16:05:45;23.10;97.30
19552;DHT22;9921;47.186;9.778;2022-10-18T16:08:19;23.00;98.10
19552;DHT22;9921;47.186;9.778;2022-10-18T16:10:46;22.70;99.00
19552;DHT22;9921;47.186;9.778;2022-10-18T16:13:13;22.30;99.90
19552;DHT22;9921;47.186;9.778;2022-10-18T16:15:41;22.00;99.90
19552;DHT22;9921;47.186;9.778;2022-10-18T16:18:10;21.90;99.90
19552;DHT22;9921;47.186;9.778;2022-10-18T16:20:39;21.90;99.90
19552;DHT22;9921;47.186;9.778;2022-10-18T16:23:15;21.90;99.90
19552;DHT22;9921;47.186;9.778;2022-10-18T16:25:42;21.80;99.90
19552;DHT22;9921;47.186;9.778;2022-10-18T16:28:12;21.60;99.90
19552;DHT22;9921;47.186;9.778;2022-10-18T16:30:39;21.50;99.90
19552;DHT22;9921;47.186;9.778;2022-10-18T16:33:07;21.50;99.90
19552;DHT22;9921;47.186;9.778;2022-10-18T16:35:34;21.60;99.90
19552;DHT22;9921;47.186;9.778;2022-10-18T16:38:01;21.50;99.90
19552;DHT22;9921;47.186;9.778;2022-10-18T16:40:29;21.40;99.90
19552;DHT22;9921;47.186;9.778;2022-10-18T16:42:56;21.40;99.90
19552;DHT22;9921;47.186;9.778;2022-10-18T16:45:22;21.20;99.90
19552;DHT22;9921;47.186;9.778;2022-10-18T16:47:49;21.20;99.90